Time;durP1;ratioP1;P1;durP2;ratioP2;P2;SDS_P1;SDS_P2;PMS_P1;PMS_P2;Temp;Humidity;BMP_temperature;BMP_pressure;BME280_temperature;BME280_humidity;BME280_pressure;Samples;Min_cycle;Max_cycle;Signal;HPM_P1;HPM_P2
2022/06/19 00:01:14;;;;;;;32.38;7.72;;;14.10;99.90;;;;;;5070526;28;20082;-67
2022/06/19 00:03:48;;;;;;;31.95;6.85;;;14.10;99.90;;;;;;5071121;28;20040;-67
2022/06/19 00:06:15;;;;;;;28.48;5.65;;;14.10;99.90;;;;;;5065533;28;20053;-67
2022/06/19 00:08:42;;;;;;;39.25;8.25;;;14.10;99.90;;;;;;5070758;28;20036;-66
2022/06/19 00:11:11;;;;;;;28.65;6.70;;;14.00;99.90;;;;;;5063688;28;20040;-66
2022/06/19 00:13:38;;;;;;;32.78;7.07;;;14.10;99.90;;;;;;5050741;28;20448;-66
2022/06/19 00:16:04;;;;;;;28.05;7.40;;;14.00;99.90;;;;;;5053357;28;20075;-67
2022/06/19 00:18:31;;;;;;;27.50;8.35;;;14.00;99.90;;;;;;5060724;28;20040;-67
2022/06/19 00:20:57;;;;;;;38.30;6.90;;;14.00;99.90;;;;;;5073540;28;20048;-66
2022/06/19 00:23:23;;;;;;;39.00;8.45;;;13.90;99.90;;;;;;5065224;28;20051;-66
2022/06/19 00:25:48;;;;;;;37.45;9.60;;;13.90;99.90;;;;;;5068928;28;20497;-66
2022/06/19 00:28:14;;;;;;;32.60;8.40;;;13.90;99.90;;;;;;5061593;28;20076;-66
2022/06/19 00:30:40;;;;;;;33.67;7.95;;;13.90;99.90;;;;;;5068899;28;20110;-66
2022/06/19 00:33:06;;;;;;;38.53;7.40;;;13.90;99.90;;;;;;5078707;28;20132;-66
2022/06/19 00:35:32;;;;;;;38.08;8.77;;;13.90;99.90;;;;;;5067506;28;20036;-66
2022/06/19 00:37:58;;;;;;;39.40;8.32;;;13.90;99.90;;;;;;5069986;28;20115;-66
2022/06/19 00:40:26;;;;;;;39.15;9.23;;;13.90;99.90;;;;;;5070354;28;20129;-66
2022/06/19 00:42:52;;;;;;;32.70;7.68;;;13.90;99.90;;;;;;5069785;28;20090;-66
2022/06/19 00:45:42;;;;;;;31.15;8.70;;;13.90;99.90;;;;;;5069295;28;20040;-66
2022/06/19 00:48:18;;;;;;;31.77;7.05;;;14.00;99.90;;;;;;5058551;28;20127;-66
2022/06/19 00:50:46;;;;;;;29.70;6.88;;;14.00;99.90;;;;;;5066970;28;20053;-66
2022/06/19 00:53:19;;;;;;;32.60;7.05;;;13.90;99.90;;;;;;5069332;28;20036;-67
2022/06/19 00:55:48;;;;;;;31.83;6.93;;;13.90;99.90;;;;;;5070121;28;20053;-67
2022/06/19 00:58:17;;;;;;;;;;;13.80;99.90;;;;;;5071003;28;20500;-67
2022/06/19 01:00:47;;;;;;;29.83;6.35;;;13.80;99.90;;;;;;5069608;28;20011;-66
2022/06/19 01:03:20;;;;;;;29.92;6.28;;;13.90;99.90;;;;;;5060774;28;20044;-67
2022/06/19 01:05:47;;;;;;;24.63;6.13;;;13.80;99.90;;;;;;5061253;28;20055;-67
2022/06/19 01:08:13;;;;;;;31.73;7.30;;;13.90;99.90;;;;;;5070688;28;20067;-66
2022/06/19 01:10:42;;;;;;;28.13;7.45;;;13.90;99.90;;;;;;5061683;28;20073;-66
2022/06/19 01:13:09;;;;;;;22.35;8.02;;;13.90;99.90;;;;;;5070717;28;20033;-67
2022/06/19 01:15:36;;;;;;;31.20;6.60;;;13.90;99.90;;;;;;5068428;28;20076;-67
2022/06/19 01:18:05;;;;;;;25.37;6.60;;;13.90;99.90;;;;;;5074199;28;20072;-67
2022/06/19 01:20:33;;;;;;;42.97;6.90;;;13.90;99.90;;;;;;5059598;28;20477;-67
2022/06/19 01:23:26;;;;;;;22.08;5.18;;;13.90;99.90;;;;;;5061008;28;20036;-67
2022/06/19 01:25:52;;;;;;;26.52;6.95;;;14.00;99.90;;;;;;5061828;28;20045;-67
2022/06/19 01:31:28;;;;;;;28.85;7.03;;;14.00;99.90;;;;;;5068482;28;20395;-66
2022/06/19 01:34:01;;;;;;;31.27;6.13;;;14.00;99.90;;;;;;5068556;28;20095;-66
2022/06/19 01:36:29;;;;;;;28.20;6.05;;;14.20;99.90;;;;;;5067950;28;20452;-67
2022/06/19 01:38:57;;;;;;;32.65;6.53;;;14.20;99.90;;;;;;5063864;28;20051;-66
2022/06/19 01:41:30;;;;;;;28.90;6.75;;;14.30;99.90;;;;;;5067185;28;20041;-66
2022/06/19 01:43:56;;;;;;;22.40;5.07;;;14.30;99.90;;;;;;5068407;28;20413;-66
2022/06/19 01:46:23;;;;;;;26.38;5.78;;;14.40;99.90;;;;;;5068194;28;20041;-66
2022/06/19 01:48:49;;;;;;;23.70;4.28;;;14.50;99.90;;;;;;5067851;28;20501;-65
2022/06/19 01:51:15;;;;;;;26.88;5.35;;;14.40;99.90;;;;;;5067737;28;20056;-66
2022/06/19 01:53:50;;;;;;;22.25;4.82;;;14.50;99.90;;;;;;5068738;28;20492;-66
2022/06/19 01:56:16;;;;;;;15.40;3.90;;;14.50;99.90;;;;;;5068149;28;20045;-66
2022/06/19 01:58:47;;;;;;;18.92;4.13;;;14.50;99.90;;;;;;5059186;28;20051;-66
2022/06/19 02:01:13;;;;;;;21.45;3.92;;;14.50;99.90;;;;;;5066389;28;20048;-66
2022/06/19 02:03:50;;;;;;;16.83;4.22;;;14.50;99.90;;;;;;5067598;28;20576;-66
2022/06/19 02:06:28;;;;;;;11.77;4.20;;;14.50;99.90;;;;;;5060436;28;20084;-66
2022/06/19 02:08:54;;;;;;;12.70;3.47;;;14.50;99.90;;;;;;5062734;28;20049;-66
2022/06/19 02:11:21;;;;;;;26.85;5.03;;;14.50;99.90;;;;;;5067368;28;20090;-65
2022/06/19 02:13:48;;;;;;;18.67;4.85;;;14.40;99.90;;;;;;5058482;28;20147;-66
2022/06/19 02:16:20;;;;;;;22.80;3.85;;;14.50;99.90;;;;;;5060715;28;20848;-66
2022/06/19 02:18:50;;;;;;;28.98;6.05;;;14.40;99.90;;;;;;5057605;28;20136;-66
2022/06/19 02:21:19;;;;;;;21.95;5.75;;;14.40;99.90;;;;;;5061170;28;20084;-67
2022/06/19 02:23:47;;;;;;;17.83;4.78;;;14.40;99.90;;;;;;5054794;28;20119;-67
2022/06/19 02:26:13;;;;;;;13.70;4.80;;;14.40;99.90;;;;;;5067766;28;20036;-67
2022/06/19 02:28:43;;;;;;;18.27;5.22;;;14.40;99.90;;;;;;5062929;28;20047;-67
2022/06/19 02:31:10;;;;;;;26.30;5.70;;;14.30;99.90;;;;;;5063648;28;20048;-67
2022/06/19 02:33:41;;;;;;;21.33;4.57;;;14.30;99.90;;;;;;5058713;28;20379;-67
2022/06/19 02:36:43;;;;;;;24.85;5.03;;;14.30;99.90;;;;;;5062489;28;20536;-67
2022/06/19 02:39:21;;;;;;;22.83;5.57;;;14.20;99.90;;;;;;5065135;28;20505;-67
2022/06/19 02:42:17;;;;;;;19.80;5.38;;;14.20;99.90;;;;;;5067802;28;20044;-67
2022/06/19 02:44:44;;;;;;;27.40;6.18;;;14.20;99.90;;;;;;5068130;28;20048;-67
2022/06/19 02:47:10;;;;;;;29.80;5.38;;;14.20;99.90;;;;;;5068441;28;20044;-67
2022/06/19 02:49:37;;;;;;;20.13;5.32;;;14.20;99.90;;;;;;5068007;28;20041;-67
2022/06/19 02:52:04;;;;;;;31.27;6.95;;;14.20;99.90;;;;;;5070569;28;20047;-66
2022/06/19 02:54:30;;;;;;;32.35;8.45;;;14.30;99.90;;;;;;5068091;28;20033;-67
2022/06/19 02:56:56;;;;;;;21.05;6.63;;;14.40;99.90;;;;;;5055439;28;20461;-67
2022/06/19 02:59:22;;;;;;;18.48;6.15;;;14.50;99.90;;;;;;5056469;28;20054;-67
2022/06/19 03:01:48;;;;;;;28.48;6.70;;;14.50;99.90;;;;;;5061614;28;20048;-67
2022/06/19 03:04:21;;;;;;;31.60;6.78;;;14.50;99.90;;;;;;5061386;28;20569;-67
2022/06/19 03:06:47;;;;;;;21.58;6.53;;;14.60;99.90;;;;;;5068143;28;20052;-67
2022/06/19 03:09:12;;;;;;;37.30;7.32;;;14.60;99.90;;;;;;5068246;28;20051;-67
2022/06/19 03:11:38;;;;;;;22.23;6.13;;;14.60;99.90;;;;;;5060359;28;20114;-67
2022/06/19 03:14:04;;;;;;;30.90;6.88;;;14.70;99.90;;;;;;5066364;28;20139;-67
2022/06/19 03:16:30;;;;;;;33.80;6.25;;;14.70;99.90;;;;;;5059655;28;20140;-67
2022/06/19 03:18:57;;;;;;;28.13;6.60;;;14.70;99.90;;;;;;5069769;28;20071;-66
2022/06/19 03:21:23;;;;;;;24.30;7.47;;;14.70;99.90;;;;;;5070217;28;20504;-67
2022/06/19 03:23:48;;;;;;;22.13;6.05;;;14.80;99.90;;;;;;5057233;28;20072;-67
2022/06/19 03:26:14;;;;;;;36.40;6.85;;;14.80;99.90;;;;;;5061327;28;20045;-67
2022/06/19 03:28:40;;;;;;;26.92;6.82;;;14.80;99.90;;;;;;5071316;28;20032;-67
2022/06/19 03:31:06;;;;;;;33.45;7.13;;;14.80;99.90;;;;;;5067581;28;20052;-67
2022/06/19 03:33:31;;;;;;;24.25;6.82;;;14.80;99.90;;;;;;5074057;28;20806;-67
2022/06/19 03:35:57;;;;;;;31.95;7.85;;;14.80;99.90;;;;;;5060470;28;20110;-67
2022/06/19 03:38:23;;;;;;;21.30;5.57;;;14.70;99.90;;;;;;5084133;28;20036;-67
2022/06/19 03:40:48;;;;;;;23.73;6.43;;;14.80;99.90;;;;;;5067078;28;20053;-67
2022/06/19 03:43:14;;;;;;;27.27;6.32;;;14.80;99.90;;;;;;5066697;28;20048;-66
2022/06/19 03:45:40;;;;;;;18.33;5.05;;;14.80;99.90;;;;;;5064356;28;20037;-67
2022/06/19 03:48:07;;;;;;;32.80;7.68;;;14.70;99.90;;;;;;5069471;28;20086;-66
2022/06/19 03:50:32;;;;;;;32.60;6.15;;;14.70;99.90;;;;;;5062570;28;21528;-67
2022/06/19 03:52:58;;;;;;;26.55;5.57;;;14.60;99.90;;;;;;5073816;28;20037;-67
2022/06/19 03:55:23;;;;;;;25.30;5.70;;;14.50;99.90;;;;;;5080201;28;20032;-68
2022/06/19 03:57:49;;;;;;;25.02;5.70;;;14.30;99.90;;;;;;5072583;28;20052;-67
2022/06/19 04:00:17;;;;;;;26.83;5.78;;;14.20;99.90;;;;;;5065815;28;20044;-68
2022/06/19 04:02:44;;;;;;;15.88;4.93;;;14.10;99.90;;;;;;5058696;28;20498;-67
2022/06/19 04:05:12;;;;;;;28.20;5.50;;;14.10;99.90;;;;;;5063739;28;20122;-67
2022/06/19 04:07:48;;;;;;;32.67;6.15;;;14.30;99.90;;;;;;5063373;28;20040;-67
2022/06/19 04:10:18;;;;;;;29.02;5.40;;;14.30;99.90;;;;;;5066347;28;20094;-67
2022/06/19 04:12:43;;;;;;;25.23;6.40;;;14.30;99.90;;;;;;5069298;28;20044;-67
2022/06/19 04:15:13;;;;;;;27.73;6.05;;;14.40;99.90;;;;;;5085891;28;20734;-66
2022/06/19 04:17:39;;;;;;;23.48;5.18;;;14.30;99.90;;;;;;5062300;28;20379;-67
2022/06/19 04:20:10;;;;;;;14.05;3.78;;;14.30;99.90;;;;;;5088570;28;20618;-67
2022/06/19 04:22:36;;;;;;;24.45;5.88;;;14.00;99.90;;;;;;5077271;28;20462;-67
2022/06/19 04:25:07;;;;;;;22.17;4.30;;;13.80;99.90;;;;;;5069651;28;20040;-67
2022/06/19 04:27:34;;;;;;;35.45;4.85;;;13.60;99.90;;;;;;5060719;28;20296;-66
2022/06/19 04:30:01;;;;;;;21.63;4.78;;;13.50;99.90;;;;;;5068457;28;20041;-68
2022/06/19 04:32:26;;;;;;;16.17;5.40;;;13.60;99.90;;;;;;5057946;28;20045;-67
2022/06/19 04:34:52;;;;;;;16.17;4.38;;;13.60;99.90;;;;;;5065415;28;20052;-67
2022/06/19 04:37:17;;;;;;;19.92;5.15;;;13.60;99.90;;;;;;5066193;28;20083;-67
2022/06/19 04:39:43;;;;;;;17.60;5.22;;;13.60;99.90;;;;;;5069137;28;20516;-67
2022/06/19 04:42:09;;;;;;;23.00;5.22;;;13.70;99.90;;;;;;5070499;28;20037;-68
2022/06/19 04:44:35;;;;;;;34.25;7.70;;;13.70;99.90;;;;;;5060769;28;20052;-67
2022/06/19 04:47:00;;;;;;;31.83;5.93;;;13.70;99.90;;;;;;5064606;28;20379;-67
2022/06/19 04:49:26;;;;;;;23.90;5.47;;;13.70;99.90;;;;;;5069206;28;20850;-67
2022/06/19 04:51:51;;;;;;;20.90;5.43;;;13.70;99.90;;;;;;5063563;28;20039;-67
2022/06/19 04:54:17;;;;;;;18.80;5.88;;;13.80;99.90;;;;;;5065599;28;20036;-67
2022/06/19 04:56:43;;;;;;;23.55;6.18;;;13.80;99.90;;;;;;5069348;28;20036;-68
2022/06/19 04:59:09;;;;;;;35.63;6.60;;;13.90;99.90;;;;;;5070470;28;20045;-67
2022/06/19 05:01:38;;;;;;;30.05;5.82;;;14.00;99.90;;;;;;5061934;28;20119;-68
2022/06/19 05:04:07;;;;;;;14.07;4.85;;;14.00;99.90;;;;;;5067778;28;20040;-67
2022/06/19 05:06:33;;;;;;;27.08;4.88;;;14.10;99.90;;;;;;5059432;28;20099;-67
2022/06/19 05:08:59;;;;;;;26.50;5.55;;;14.20;99.90;;;;;;5064647;28;20101;-67
2022/06/19 05:11:27;;;;;;;16.88;5.47;;;14.20;99.90;;;;;;5068080;28;20040;-67
2022/06/19 05:13:53;;;;;;;26.55;4.80;;;14.30;99.90;;;;;;5070980;28;20051;-67
2022/06/19 05:16:21;;;;;;;29.63;4.97;;;14.40;99.90;;;;;;5068584;28;20049;-67
2022/06/19 05:18:48;;;;;;;16.90;5.15;;;14.40;99.90;;;;;;5061359;28;20481;-67
2022/06/19 05:21:14;;;;;;;20.25;5.97;;;14.50;99.90;;;;;;5060178;28;20553;-67
2022/06/19 05:23:44;;;;;;;28.25;5.57;;;14.50;99.90;;;;;;5055949;28;20040;-67
2022/06/19 05:26:33;;;;;;;14.63;4.55;;;14.60;99.90;;;;;;5057304;28;20040;-66
2022/06/19 05:29:00;;;;;;;18.02;4.90;;;14.70;99.90;;;;;;5071602;28;20052;-65
2022/06/19 05:31:27;;;;;;;18.33;4.65;;;14.70;99.90;;;;;;5067817;28;20071;-66
2022/06/19 05:33:53;;;;;;;16.10;5.10;;;14.70;99.90;;;;;;5064966;28;20474;-67
2022/06/19 05:36:20;;;;;;;17.98;6.32;;;14.80;99.90;;;;;;5064336;28;20047;-66
2022/06/19 05:38:46;;;;;;;28.10;5.38;;;14.80;99.90;;;;;;5076816;28;20513;-67
2022/06/19 05:41:12;;;;;;;19.75;5.13;;;14.90;99.90;;;;;;5068944;28;20045;-67
2022/06/19 05:43:38;;;;;;;19.58;5.30;;;14.90;99.90;;;;;;5066590;28;20032;-67
2022/06/19 05:46:12;;;;;;;15.27;4.40;;;15.00;99.90;;;;;;5064731;28;20482;-67
2022/06/19 05:48:38;;;;;;;21.25;5.10;;;15.10;99.90;;;;;;5069958;28;20366;-67
2022/06/19 05:51:11;;;;;;;21.80;5.65;;;15.00;99.90;;;;;;5066468;28;20055;-68
2022/06/19 05:53:40;;;;;;;15.80;5.32;;;15.00;99.90;;;;;;5067750;28;20048;-67
2022/06/19 05:56:06;;;;;;;26.98;5.35;;;15.00;99.90;;;;;;5061025;28;20075;-68
2022/06/19 05:58:33;;;;;;;18.48;4.90;;;14.90;99.90;;;;;;5059302;28;20036;-67
2022/06/19 06:01:00;;;;;;;30.50;5.70;;;14.80;99.90;;;;;;5066687;28;20044;-68
2022/06/19 06:03:26;;;;;;;22.38;5.43;;;14.80;99.90;;;;;;5066772;28;20498;-67
2022/06/19 06:05:52;;;;;;;19.40;5.85;;;14.80;99.90;;;;;;5053007;28;20064;-67
2022/06/19 06:08:19;;;;;;;35.95;5.05;;;14.90;99.90;;;;;;5067450;28;20067;-67
2022/06/19 06:10:48;;;;;;;19.90;5.93;;;15.00;99.90;;;;;;5066670;28;20087;-67
2022/06/19 06:13:14;;;;;;;34.03;6.38;;;15.20;99.90;;;;;;5057685;28;20127;-67
2022/06/19 06:15:41;;;;;;;22.60;7.53;;;15.30;99.90;;;;;;5057275;28;20044;-67
2022/06/19 06:18:08;;;;;;;30.60;5.30;;;15.40;99.90;;;;;;5067575;28;20050;-67
2022/06/19 06:20:35;;;;;;;19.70;5.43;;;15.30;99.90;;;;;;5060068;28;20861;-67
2022/06/19 06:23:01;;;;;;;18.77;4.35;;;15.10;99.90;;;;;;5059067;28;20077;-67
2022/06/19 06:25:27;;;;;;;15.18;4.22;;;15.00;99.90;;;;;;5050474;28;20085;-67
2022/06/19 06:27:53;;;;;;;16.45;5.15;;;15.00;99.90;;;;;;5062270;28;20041;-67
2022/06/19 06:30:18;;;;;;;22.02;5.85;;;15.10;99.90;;;;;;5062518;28;20497;-66
2022/06/19 06:32:44;;;;;;;29.63;6.88;;;15.00;99.90;;;;;;5056501;28;20048;-67
2022/06/19 06:35:10;;;;;;;23.70;7.68;;;14.90;99.90;;;;;;5056332;28;20033;-67
2022/06/19 06:37:37;;;;;;;31.40;6.55;;;14.90;99.90;;;;;;5062687;28;20054;-68
2022/06/19 06:40:08;;;;;;;16.30;6.20;;;14.80;99.90;;;;;;5076874;28;20049;-68
2022/06/19 06:42:35;;;;;;;26.75;7.07;;;14.80;99.90;;;;;;5057122;28;20048;-67
2022/06/19 06:45:01;;;;;;;27.33;6.82;;;14.70;99.90;;;;;;5057026;28;20573;-66
2022/06/19 06:47:27;;;;;;;26.98;7.75;;;14.70;99.90;;;;;;5067897;28;20044;-67
2022/06/19 06:49:52;;;;;;;33.40;7.40;;;14.70;99.90;;;;;;5070697;28;20403;-66
2022/06/19 06:52:18;;;;;;;26.65;6.50;;;14.70;99.90;;;;;;5071554;28;20059;-67
2022/06/19 06:54:44;;;;;;;22.70;6.55;;;14.50;99.90;;;;;;5070263;28;20043;-66
2022/06/19 06:57:09;;;;;;;20.80;6.07;;;14.50;99.90;;;;;;5062766;28;20117;-66
2022/06/19 06:59:36;;;;;;;28.90;6.47;;;14.40;99.90;;;;;;5054838;28;21364;-66
2022/06/19 07:02:03;;;;;;;34.35;7.03;;;14.50;99.90;;;;;;5062459;28;20068;-66
2022/06/19 07:04:29;;;;;;;26.23;6.72;;;14.50;99.90;;;;;;5059270;28;20055;-67
2022/06/19 07:06:56;;;;;;;23.88;6.55;;;14.40;99.90;;;;;;5053659;28;20469;-67
2022/06/19 07:09:22;;;;;;;20.25;5.75;;;14.50;99.90;;;;;;5066378;28;20040;-67
2022/06/19 07:11:47;;;;;;;24.25;6.72;;;14.30;99.90;;;;;;5059627;28;20060;-67
2022/06/19 07:14:16;;;;;;;28.23;5.93;;;14.30;99.90;;;;;;5055753;28;20120;-66
2022/06/19 07:16:42;;;;;;;18.40;5.63;;;14.30;99.90;;;;;;5058567;28;20036;-67
2022/06/19 07:19:09;;;;;;;25.67;6.50;;;14.40;99.90;;;;;;5055112;28;20067;-68
2022/06/19 07:21:35;;;;;;;25.63;6.93;;;14.40;99.90;;;;;;5060352;28;20775;-67
2022/06/19 07:24:01;;;;;;;19.17;5.10;;;14.50;99.90;;;;;;5063193;28;20047;-67
2022/06/19 07:26:28;;;;;;;28.90;6.75;;;14.50;99.90;;;;;;5065930;28;20052;-67
2022/06/19 07:28:55;;;;;;;23.98;5.55;;;14.40;99.90;;;;;;5061667;28;20072;-67
2022/06/19 07:31:20;;;;;;;32.92;7.97;;;14.50;99.90;;;;;;5058801;28;20402;-68
2022/06/19 07:33:46;;;;;;;32.40;7.15;;;14.40;99.90;;;;;;5061093;28;20082;-67
2022/06/19 07:36:18;;;;;;;16.55;6.22;;;14.50;99.90;;;;;;5057831;28;20039;-67
2022/06/19 07:38:44;;;;;;;19.23;5.63;;;14.50;99.90;;;;;;5066402;28;20102;-68
2022/06/19 07:41:11;;;;;;;22.38;7.28;;;14.60;99.90;;;;;;5067501;28;20077;-67
2022/06/19 07:43:37;;;;;;;13.43;4.47;;;14.80;99.90;;;;;;5064275;28;20190;-68
2022/06/19 07:46:04;;;;;;;34.20;6.78;;;14.90;99.90;;;;;;5072185;28;20102;-67
2022/06/19 07:51:14;;;;;;;28.67;6.50;;;15.00;99.90;;;;;;5068391;28;20055;-67
2022/06/19 07:53:40;;;;;;;21.77;5.45;;;15.10;99.90;;;;;;5055596;28;20052;-67
2022/06/19 07:56:06;;;;;;;23.88;6.53;;;15.10;99.90;;;;;;5068289;28;20036;-67
2022/06/19 07:58:35;;;;;;;21.05;6.95;;;15.20;99.90;;;;;;5065228;28;20453;-67
2022/06/19 08:01:00;;;;;;;;;;;15.20;99.90;;;;;;5070915;28;20049;-67
2022/06/19 08:03:26;;;;;;;20.30;5.88;;;15.20;99.90;;;;;;5077930;28;19927;-68
2022/06/19 08:05:52;;;;;;;23.38;5.78;;;15.20;99.90;;;;;;5065450;28;20053;-67
2022/06/19 08:08:27;;;;;;;18.75;5.32;;;15.20;99.90;;;;;;5066218;28;20160;-67
2022/06/19 08:10:55;;;;;;;17.85;5.38;;;15.20;99.90;;;;;;5077215;28;20052;-68
2022/06/19 08:13:24;;;;;;;25.00;6.75;;;15.20;99.90;;;;;;5068817;28;20047;-67
2022/06/19 08:16:02;;;;;;;9.25;4.32;;;15.20;99.90;;;;;;5063909;28;20069;-67
2022/06/19 08:18:28;;;;;;;13.18;5.82;;;15.30;99.90;;;;;;5065591;28;20032;-67
2022/06/19 08:20:54;;;;;;;22.40;5.97;;;15.20;99.90;;;;;;5069283;28;20040;-67
2022/06/19 08:23:20;;;;;;;26.17;5.68;;;15.20;99.90;;;;;;5062887;28;20817;-68
2022/06/19 08:25:47;;;;;;;26.45;6.32;;;15.20;99.90;;;;;;5064251;28;20048;-67
2022/06/19 08:28:15;;;;;;;19.08;5.60;;;15.30;99.90;;;;;;5067290;28;20398;-67
2022/06/19 08:30:42;;;;;;;28.35;5.28;;;15.30;99.90;;;;;;5059420;28;20049;-68
2022/06/19 08:33:09;;;;;;;20.65;6.78;;;15.30;99.90;;;;;;5065739;28;20079;-68
2022/06/19 08:35:40;;;;;;;20.98;5.05;;;15.30;99.90;;;;;;5064527;28;20053;-68
2022/06/19 08:38:10;;;;;;;18.08;5.47;;;15.20;99.90;;;;;;5061589;28;20049;-67
2022/06/19 08:40:48;;;;;;;23.33;6.40;;;15.30;99.90;;;;;;5067308;28;20045;-68
2022/06/19 08:43:39;;;;;;;22.98;6.75;;;15.50;99.90;;;;;;5069945;28;20391;-68
2022/06/19 08:46:39;;;;;;;41.45;7.25;;;15.50;99.90;;;;;;5052450;28;20059;-67
2022/06/19 08:49:32;;;;;;;27.33;6.93;;;15.50;99.90;;;;;;5068486;28;20036;-67
2022/06/19 08:52:25;;;;;;;22.48;6.10;;;15.50;99.90;;;;;;5068016;28;20227;-67
2022/06/19 08:55:15;;;;;;;28.52;7.00;;;15.50;99.90;;;;;;5065145;28;20106;-68
2022/06/19 08:58:08;;;;;;;38.13;7.00;;;15.60;99.90;;;;;;5069678;28;20040;-67
2022/06/19 09:00:50;;;;;;;27.15;6.30;;;15.70;99.90;;;;;;5072999;28;20395;-68
2022/06/19 09:05:36;;;;;;;26.48;7.15;;;15.70;99.90;;;;;;5067678;28;20124;-67
2022/06/19 09:06:26;;;;;;;33.58;7.82;;;15.70;99.90;;;;;;5070967;28;20044;-67
2022/06/19 09:09:17;;;;;;;16.10;6.68;;;15.70;99.90;;;;;;5066078;28;20071;-67
2022/06/19 09:12:18;;;;;;;41.33;6.85;;;15.80;99.90;;;;;;5055683;28;20045;-67
2022/06/19 09:15:11;;;;;;;23.13;5.50;;;15.80;99.90;;;;;;5063909;28;20776;-67
2022/06/19 09:17:37;;;;;;;20.17;6.00;;;15.80;99.90;;;;;;5067545;28;20068;-67
2022/06/19 09:20:12;;;;;;;23.50;5.72;;;15.80;99.90;;;;;;5058394;28;20079;-68
2022/06/19 09:23:03;;;;;;;20.35;6.60;;;15.80;99.90;;;;;;5065084;28;20041;-67
2022/06/19 09:25:37;;;;;;;24.27;6.25;;;15.80;99.90;;;;;;5067927;28;20056;-67
2022/06/19 09:28:32;;;;;;;27.10;6.13;;;15.80;99.90;;;;;;5069437;28;20195;-67
2022/06/19 09:31:13;;;;;;;24.35;6.75;;;15.80;99.90;;;;;;5068335;28;20102;-67
2022/06/19 09:33:53;;;;;;;15.65;6.57;;;15.80;99.90;;;;;;5067371;28;20043;-67
2022/06/19 09:37:06;;;;;;;24.80;5.82;;;15.80;99.90;;;;;;5073062;28;20040;-67
2022/06/19 09:40:14;;;;;;;17.80;5.68;;;15.80;99.90;;;;;;5063192;28;20087;-68
2022/06/19 09:42:51;;;;;;;18.70;7.05;;;15.90;99.90;;;;;;5067474;28;20102;-68
2022/06/19 09:45:23;;;;;;;14.65;6.35;;;15.80;99.90;;;;;;5066181;28;20409;-68
2022/06/19 09:48:17;;;;;;;17.33;5.45;;;15.90;99.90;;;;;;5070743;28;20049;-68
2022/06/19 09:50:49;;;;;;;20.02;6.30;;;15.90;99.90;;;;;;5059595;28;20048;-68
2022/06/19 09:53:21;;;;;;;29.25;7.95;;;16.00;99.90;;;;;;5061778;28;20046;-67
2022/06/19 09:55:52;;;;;;;17.33;7.70;;;16.00;99.90;;;;;;5066368;28;20563;-67
2022/06/19 09:58:37;;;;;;;19.92;7.25;;;16.10;99.90;;;;;;5076360;28;20051;-68
2022/06/19 10:01:04;;;;;;;19.15;7.57;;;16.30;99.90;;;;;;5067331;28;20044;-68
2022/06/19 10:03:41;;;;;;;17.23;5.88;;;16.40;99.90;;;;;;5068009;28;20526;-67
2022/06/19 10:06:49;;;;;;;27.37;7.33;;;16.50;99.90;;;;;;5067185;28;20053;-68
2022/06/19 10:09:28;;;;;;;26.90;7.18;;;16.40;99.90;;;;;;5054090;28;20048;-67
2022/06/19 10:11:59;;;;;;;19.48;7.32;;;16.30;99.90;;;;;;5051073;28;20044;-67
2022/06/19 10:14:33;;;;;;;25.95;8.52;;;16.30;99.90;;;;;;5055365;28;20714;-68
2022/06/19 10:17:34;;;;;;;18.40;7.93;;;16.30;99.90;;;;;;5063453;28;20044;-67
2022/06/19 10:20:16;;;;;;;29.77;9.77;;;16.20;99.90;;;;;;5051444;28;20056;-67
2022/06/19 10:22:51;;;;;;;16.63;8.35;;;16.20;99.90;;;;;;5064120;28;20119;-67
2022/06/19 10:25:45;;;;;;;19.85;8.95;;;16.10;99.90;;;;;;5061037;28;20052;-67
2022/06/19 10:28:22;;;;;;;21.73;8.45;;;16.20;99.90;;;;;;5070045;28;20166;-67
2022/06/19 10:31:13;;;;;;;29.27;8.95;;;16.20;99.90;;;;;;5057607;28;20051;-67
2022/06/19 10:33:49;;;;;;;20.58;8.48;;;16.30;99.90;;;;;;5063258;28;20086;-67
2022/06/19 10:36:37;;;;;;;17.92;7.75;;;16.40;99.90;;;;;;5066898;28;20123;-67
2022/06/19 10:39:26;;;;;;;12.98;5.93;;;16.50;99.90;;;;;;5058016;28;20066;-67
2022/06/19 10:42:14;;;;;;;18.30;6.20;;;16.40;99.90;;;;;;5065676;28;20445;-67
2022/06/19 10:45:16;;;;;;;18.05;6.10;;;16.50;99.90;;;;;;5057649;28;20053;-68
2022/06/19 10:47:42;;;;;;;16.13;6.10;;;16.50;99.90;;;;;;5055587;28;20041;-68
2022/06/19 10:50:25;;;;;;;12.38;6.57;;;16.40;99.90;;;;;;5067687;28;20064;-67
2022/06/19 10:53:12;;;;;;;16.33;5.55;;;16.40;99.90;;;;;;5049529;28;20123;-67
2022/06/19 10:55:46;;;;;;;16.70;5.05;;;16.30;99.90;;;;;;5063842;28;20124;-67
2022/06/19 10:58:24;;;;;;;11.27;4.70;;;16.30;99.90;;;;;;5066566;28;20735;-67
2022/06/19 11:00:51;;;;;;;;;;;16.40;99.90;;;;;;5062493;28;21188;-67
2022/06/19 11:06:10;;;;;;;11.15;4.47;;;16.20;99.90;;;;;;5074567;28;20048;-67
2022/06/19 11:08:37;;;;;;;14.68;6.80;;;16.10;99.90;;;;;;5065324;28;20129;-67
2022/06/19 11:11:04;;;;;;;14.85;5.30;;;16.20;99.90;;;;;;5064433;28;20053;-67
2022/06/19 11:13:58;;;;;;;23.40;6.35;;;16.10;99.90;;;;;;5062375;28;20045;-67
2022/06/19 11:16:24;;;;;;;19.98;5.15;;;16.00;99.90;;;;;;5067857;28;20052;-67
2022/06/19 11:18:53;;;;;;;10.50;4.82;;;16.00;99.90;;;;;;5055513;28;20954;-67
2022/06/19 11:21:23;;;;;;;11.65;4.78;;;16.10;99.90;;;;;;5069257;28;20237;-67
2022/06/19 11:23:49;;;;;;;9.55;5.07;;;16.10;99.90;;;;;;5076002;28;20048;-66
2022/06/19 11:26:22;;;;;;;10.07;4.13;;;16.20;99.90;;;;;;5065355;28;20090;-67
2022/06/19 11:29:14;;;;;;;10.02;4.30;;;16.20;99.90;;;;;;5063717;28;20094;-66
2022/06/19 11:32:04;;;;;;;13.50;5.25;;;16.20;99.90;;;;;;5072042;28;20045;-67
2022/06/19 11:34:43;;;;;;;16.70;4.63;;;16.30;99.90;;;;;;5064185;28;20048;-67
2022/06/19 11:37:16;;;;;;;13.40;3.90;;;16.30;99.90;;;;;;5063435;28;20041;-67
2022/06/19 11:39:45;;;;;;;13.60;3.63;;;16.40;99.90;;;;;;5062560;28;20119;-66
2022/06/19 11:42:31;;;;;;;18.23;4.07;;;16.50;99.90;;;;;;5072247;28;20059;-68
2022/06/19 11:45:15;;;;;;;21.67;3.97;;;16.50;99.90;;;;;;5072991;28;20041;-66
2022/06/19 11:47:45;;;;;;;12.65;4.25;;;16.60;99.90;;;;;;5077204;28;20119;-67
2022/06/19 11:50:20;;;;;;;11.50;3.58;;;16.60;99.90;;;;;;5071534;28;20050;-67
2022/06/19 11:52:59;;;;;;;10.07;3.00;;;16.70;99.90;;;;;;5075720;28;20052;-67
2022/06/19 11:55:36;;;;;;;9.10;3.30;;;16.80;99.90;;;;;;5078112;28;20044;-67
2022/06/19 11:58:18;;;;;;;7.18;2.50;;;16.80;99.90;;;;;;5073856;28;20047;-67
2022/06/19 12:00:51;;;;;;;6.57;2.72;;;16.90;99.90;;;;;;5077916;28;20044;-67
2022/06/19 12:03:40;;;;;;;15.57;3.70;;;16.90;99.90;;;;;;5063918;28;20090;-66
2022/06/19 12:06:11;;;;;;;14.98;3.97;;;16.90;99.90;;;;;;5064532;28;20056;-66
2022/06/19 12:08:54;;;;;;;6.47;2.85;;;16.90;99.90;;;;;;5072765;28;20116;-66
2022/06/19 12:11:33;;;;;;;5.18;2.78;;;16.80;99.90;;;;;;5066660;28;20049;-66
2022/06/19 12:13:59;;;;;;;5.72;2.60;;;16.90;99.90;;;;;;5061733;28;20127;-66
2022/06/19 12:16:25;;;;;;;9.15;3.28;;;16.90;99.90;;;;;;5067068;28;21988;-66
2022/06/19 12:18:51;;;;;;;5.30;2.42;;;16.90;99.90;;;;;;5071786;28;20048;-66
2022/06/19 12:21:21;;;;;;;12.95;3.05;;;16.90;99.90;;;;;;5069103;28;20044;-66
2022/06/19 12:23:56;;;;;;;15.38;3.35;;;16.90;99.90;;;;;;5075649;28;20162;-66
2022/06/19 12:26:33;;;;;;;6.35;2.55;;;16.90;99.90;;;;;;5075476;28;20112;-66
2022/06/19 12:29:17;;;;;;;3.92;2.20;;;16.90;99.90;;;;;;5071221;28;20047;-66
2022/06/19 12:31:43;;;;;;;11.13;2.28;;;16.90;99.90;;;;;;5068165;28;20067;-68
2022/06/19 12:34:36;;;;;;;8.45;2.38;;;16.90;99.90;;;;;;5064952;28;20044;-67
2022/06/19 12:37:01;;;;;;;5.65;2.72;;;17.00;99.90;;;;;;5075391;28;20162;-66
2022/06/19 12:39:30;;;;;;;5.43;2.88;;;17.10;99.90;;;;;;5060417;28;20074;-66
2022/06/19 12:42:08;;;;;;;8.13;2.72;;;17.20;99.90;;;;;;5069437;28;20091;-66
2022/06/19 12:44:58;;;;;;;3.53;2.05;;;17.40;99.90;;;;;;5065474;28;20044;-66
2022/06/19 12:47:49;;;;;;;9.05;2.58;;;17.50;99.90;;;;;;5062442;28;20102;-67
2022/06/19 12:50:40;;;;;;;3.38;2.00;;;17.60;99.90;;;;;;5073595;28;20063;-67
2022/06/19 12:53:14;;;;;;;9.77;2.25;;;17.70;99.90;;;;;;5065379;28;20096;-66
2022/06/19 12:55:57;;;;;;;4.88;2.38;;;17.80;99.90;;;;;;5068843;28;20052;-66
2022/06/19 12:58:40;;;;;;;7.50;3.05;;;17.70;99.90;;;;;;5065918;28;20037;-66
2022/06/19 13:01:09;;;;;;;4.63;2.15;;;17.80;99.90;;;;;;5068707;28;20055;-67
2022/06/19 13:03:56;;;;;;;5.72;2.17;;;17.60;99.90;;;;;;5069974;28;20045;-66
2022/06/19 13:06:39;;;;;;;7.53;2.47;;;17.60;99.90;;;;;;5068755;28;20048;-66
2022/06/19 13:09:34;;;;;;;5.68;2.10;;;17.50;99.90;;;;;;5063941;28;20485;-67
2022/06/19 13:12:23;;;;;;;5.43;2.63;;;17.50;99.90;;;;;;5050048;28;20141;-67